sensor_id;sensor_type;location;lat;lon;timestamp;pressure;altitude;pressure_sealevel;temperature;humidity
72798;BME280;61084;55.816;37.036;2023-02-15T00:01:25;99860.88;;;-0.81;68.94
72798;BME280;61084;55.816;37.036;2023-02-15T00:03:51;99866.88;;;-0.87;68.78
72798;BME280;61084;55.816;37.036;2023-02-15T00:06:17;99863.47;;;-0.87;68.91
72798;BME280;61084;55.816;37.036;2023-02-15T00:08:43;99866.03;;;-0.90;69.16
72798;BME280;61084;55.816;37.036;2023-02-15T00:11:12;99864.28;;;-0.91;68.96
72798;BME280;61084;55.816;37.036;2023-02-15T00:13:38;99874.59;;;-0.96;69.14
72798;BME280;61084;55.816;37.036;2023-02-15T00:16:11;99875.47;;;-0.95;68.91
72798;BME280;61084;55.816;37.036;2023-02-15T00:18:38;99876.34;;;-1.01;69.56
72798;BME280;61084;55.816;37.036;2023-02-15T00:21:06;99874.63;;;-1.05;69.58
72798;BME280;61084;55.816;37.036;2023-02-15T00:23:32;99871.16;;;-1.02;69.44
72798;BME280;61084;55.816;37.036;2023-02-15T00:26:11;99880.63;;;-1.03;69.69
72798;BME280;61084;55.816;37.036;2023-02-15T00:28:38;99878.91;;;-1.01;69.71
72798;BME280;61084;55.816;37.036;2023-02-15T00:31:06;99879.78;;;-1.00;69.30
72798;BME280;61084;55.816;37.036;2023-02-15T00:33:35;99875.47;;;-0.97;68.96
72798;BME280;61084;55.816;37.036;2023-02-15T00:36:02;99873.75;;;-0.96;69.12
72798;BME280;61084;55.816;37.036;2023-02-15T00:38:30;99881.47;;;-0.95;68.91
72798;BME280;61084;55.816;37.036;2023-02-15T00:40:59;99880.63;;;-0.95;68.54
72798;BME280;61084;55.816;37.036;2023-02-15T00:43:25;99886.63;;;-0.99;68.06
72798;BME280;61084;55.816;37.036;2023-02-15T00:45:52;99879.75;;;-1.02;68.10
72798;BME280;61084;55.816;37.036;2023-02-15T00:48:18;99884.03;;;-1.02;67.96
72798;BME280;61084;55.816;37.036;2023-02-15T00:50:55;99884.91;;;-0.99;68.55
72798;BME280;61084;55.816;37.036;2023-02-15T00:53:22;99890.91;;;-1.06;67.62
72798;BME280;61084;55.816;37.036;2023-02-15T00:55:49;99891.75;;;-1.13;67.43
72798;BME280;61084;55.816;37.036;2023-02-15T00:58:16;99887.47;;;-1.14;67.87
72798;BME280;61084;55.816;37.036;2023-02-15T01:00:43;99887.47;;;-1.14;68.12
72798;BME280;61084;55.816;37.036;2023-02-15T01:03:11;99890.06;;;-1.14;68.11
72798;BME280;61084;55.816;37.036;2023-02-15T01:05:37;99890.03;;;-1.11;67.73
72798;BME280;61084;55.816;37.036;2023-02-15T01:08:03;99885.75;;;-1.09;67.65
72798;BME280;61084;55.816;37.036;2023-02-15T01:10:29;99884.06;;;-1.11;67.60
72798;BME280;61084;55.816;37.036;2023-02-15T01:12:56;99892.63;;;-1.08;67.60
72798;BME280;61084;55.816;37.036;2023-02-15T01:15:23;99891.78;;;-1.11;67.19
72798;BME280;61084;55.816;37.036;2023-02-15T01:17:49;99892.66;;;-1.05;67.62
72798;BME280;61084;55.816;37.036;2023-02-15T01:20:19;99902.09;;;-1.01;67.78
72798;BME280;61084;55.816;37.036;2023-02-15T01:22:44;99894.34;;;-1.01;67.45
72798;BME280;61084;55.816;37.036;2023-02-15T01:25:10;99896.94;;;-1.01;67.16
72798;BME280;61084;55.816;37.036;2023-02-15T01:27:36;99896.91;;;-1.04;67.15
72798;BME280;61084;55.816;37.036;2023-02-15T01:30:02;99891.78;;;-1.04;66.92
72798;BME280;61084;55.816;37.036;2023-02-15T01:32:30;99899.50;;;-1.01;67.15
72798;BME280;61084;55.816;37.036;2023-02-15T01:34:56;99900.38;;;-0.99;66.61
72798;BME280;61084;55.816;37.036;2023-02-15T01:37:22;99897.78;;;-0.99;66.56
72798;BME280;61084;55.816;37.036;2023-02-15T01:39:48;99901.22;;;-1.00;66.47
72798;BME280;61084;55.816;37.036;2023-02-15T01:42:21;99907.22;;;-1.05;66.20
72798;BME280;61084;55.816;37.036;2023-02-15T01:47:37;99915.78;;;-1.12;65.89
72798;BME280;61084;55.816;37.036;2023-02-15T01:50:09;99907.19;;;-1.13;66.13
72798;BME280;61084;55.816;37.036;2023-02-15T01:52:37;99906.34;;;-1.16;65.77
72798;BME280;61084;55.816;37.036;2023-02-15T01:55:06;99914.94;;;-1.16;66.25
72798;BME280;61084;55.816;37.036;2023-02-15T01:57:33;99920.09;;;-1.16;66.38
72798;BME280;61084;55.816;37.036;2023-02-15T02:00:04;99917.50;;;-1.17;66.09
72798;BME280;61084;55.816;37.036;2023-02-15T02:02:40;99923.53;;;-1.20;65.47
72798;BME280;61084;55.816;37.036;2023-02-15T02:05:07;99917.50;;;-1.19;65.50
72798;BME280;61084;55.816;37.036;2023-02-15T02:07:39;99919.22;;;-1.19;66.26
72798;BME280;61084;55.816;37.036;2023-02-15T02:10:08;99920.94;;;-1.18;65.70
72798;BME280;61084;55.816;37.036;2023-02-15T02:12:34;99917.50;;;-1.17;64.61
72798;BME280;61084;55.816;37.036;2023-02-15T02:15:00;99918.34;;;-1.27;64.77
72798;BME280;61084;55.816;37.036;2023-02-15T02:20:32;99918.34;;;-1.35;64.79
72798;BME280;61084;55.816;37.036;2023-02-15T02:23:11;99922.59;;;-1.37;65.47
72798;BME280;61084;55.816;37.036;2023-02-15T02:36:40;99920.84;;;-1.52;65.54
72798;BME280;61084;55.816;37.036;2023-02-15T02:42:47;99933.69;;;-1.52;64.87
72798;BME280;61084;55.816;37.036;2023-02-15T02:45:16;99934.56;;;-1.52;65.39
72798;BME280;61084;55.816;37.036;2023-02-15T02:47:52;99936.28;;;-1.53;64.57
72798;BME280;61084;55.816;37.036;2023-02-15T02:50:25;99930.28;;;-1.55;64.39
72798;BME280;61084;55.816;37.036;2023-02-15T02:52:53;99941.41;;;-1.52;64.70
72798;BME280;61084;55.816;37.036;2023-02-15T03:00:46;99939.72;;;-1.52;64.58
72798;BME280;61084;55.816;37.036;2023-02-15T03:05:51;99941.44;;;-1.53;64.18
72798;BME280;61084;55.816;37.036;2023-02-15T03:08:20;99950.84;;;-1.55;65.51
72798;BME280;61084;55.816;37.036;2023-02-15T03:10:53;99954.25;;;-1.61;64.03
72798;BME280;61084;55.816;37.036;2023-02-15T03:13:20;99954.25;;;-1.64;64.66
72798;BME280;61084;55.816;37.036;2023-02-15T03:15:49;99955.09;;;-1.66;64.64
72798;BME280;61084;55.816;37.036;2023-02-15T03:18:44;99947.38;;;-1.65;63.97
72798;BME280;61084;55.816;37.036;2023-02-15T03:21:33;99951.69;;;-1.59;64.12
72798;BME280;61084;55.816;37.036;2023-02-15T03:24:11;99951.72;;;-1.55;64.41
72798;BME280;61084;55.816;37.036;2023-02-15T03:26:39;99957.72;;;-1.56;63.82
72798;BME280;61084;55.816;37.036;2023-02-15T03:29:09;99960.25;;;-1.60;63.50
72798;BME280;61084;55.816;37.036;2023-02-15T03:31:40;99963.69;;;-1.60;63.18
72798;BME280;61084;55.816;37.036;2023-02-15T03:34:11;99963.69;;;-1.60;64.14
72798;BME280;61084;55.816;37.036;2023-02-15T03:39:38;99961.09;;;-1.64;64.25
72798;BME280;61084;55.816;37.036;2023-02-15T03:44:55;99962.81;;;-1.68;62.18
72798;BME280;61084;55.816;37.036;2023-02-15T03:47:28;99964.50;;;-1.70;64.29
72798;BME280;61084;55.816;37.036;2023-02-15T03:52:30;99967.09;;;-1.68;64.32
72798;BME280;61084;55.816;37.036;2023-02-15T03:54:58;99970.50;;;-1.72;63.86
72798;BME280;61084;55.816;37.036;2023-02-15T03:57:26;99961.06;;;-1.76;63.26
72798;BME280;61084;55.816;37.036;2023-02-15T04:05:41;99965.34;;;-1.71;63.36
72798;BME280;61084;55.816;37.036;2023-02-15T04:08:08;99965.38;;;-1.68;62.82
72798;BME280;61084;55.816;37.036;2023-02-15T04:10:34;99963.66;;;-1.69;63.90
72798;BME280;61084;55.816;37.036;2023-02-15T04:13:23;99972.22;;;-1.74;63.76
72798;BME280;61084;55.816;37.036;2023-02-15T04:15:50;99976.44;;;-1.82;62.33
72798;BME280;61084;55.816;37.036;2023-02-15T04:18:30;99965.28;;;-1.86;62.78
72798;BME280;61084;55.816;37.036;2023-02-15T04:21:14;99964.41;;;-1.86;63.36
72798;BME280;61084;55.816;37.036;2023-02-15T04:23:59;99975.59;;;-1.81;63.10
72798;BME280;61084;55.816;37.036;2023-02-15T04:26:43;99974.69;;;-1.86;63.58
72798;BME280;61084;55.816;37.036;2023-02-15T04:29:09;99974.69;;;-1.88;62.82
72798;BME280;61084;55.816;37.036;2023-02-15T04:31:35;99971.25;;;-1.90;63.27
72798;BME280;61084;55.816;37.036;2023-02-15T04:34:01;99983.25;;;-1.92;63.21
72798;BME280;61084;55.816;37.036;2023-02-15T04:36:26;99982.41;;;-1.89;62.94
72798;BME280;61084;55.816;37.036;2023-02-15T04:38:52;99974.69;;;-1.89;63.48
72798;BME280;61084;55.816;37.036;2023-02-15T04:41:18;99982.38;;;-1.91;62.57
72798;BME280;61084;55.816;37.036;2023-02-15T04:43:44;99982.34;;;-1.98;62.14
72798;BME280;61084;55.816;37.036;2023-02-15T04:46:09;99982.31;;;-2.00;62.98
72798;BME280;61084;55.816;37.036;2023-02-15T04:48:35;99968.63;;;-1.97;63.92
72798;BME280;61084;55.816;37.036;2023-02-15T04:51:05;99972.88;;;-2.05;63.08
72798;BME280;61084;55.816;37.036;2023-02-15T04:53:32;99976.25;;;-2.11;62.62
72798;BME280;61084;55.816;37.036;2023-02-15T04:55:58;99970.22;;;-2.16;62.62
72798;BME280;61084;55.816;37.036;2023-02-15T04:58:24;99979.66;;;-2.16;62.84
72798;BME280;61084;55.816;37.036;2023-02-15T05:00:49;99975.34;;;-2.22;61.78
72798;BME280;61084;55.816;37.036;2023-02-15T05:03:15;99985.59;;;-2.25;63.04
72798;BME280;61084;55.816;37.036;2023-02-15T05:05:41;99987.28;;;-2.27;62.36
72798;BME280;61084;55.816;37.036;2023-02-15T05:08:07;99988.13;;;-2.28;63.12
72798;BME280;61084;55.816;37.036;2023-02-15T05:10:32;99986.41;;;-2.28;63.45
72798;BME280;61084;55.816;37.036;2023-02-15T05:12:58;99989.00;;;-2.26;63.13
72798;BME280;61084;55.816;37.036;2023-02-15T05:15:24;99989.00;;;-2.31;63.12
72798;BME280;61084;55.816;37.036;2023-02-15T05:17:50;99987.28;;;-2.24;63.18
72798;BME280;61084;55.816;37.036;2023-02-15T05:20:15;99991.59;;;-2.23;63.26
72798;BME280;61084;55.816;37.036;2023-02-15T05:22:41;99991.59;;;-2.23;62.85
72798;BME280;61084;55.816;37.036;2023-02-15T05:25:08;99990.75;;;-2.20;63.74
72798;BME280;61084;55.816;37.036;2023-02-15T05:27:53;99995.91;;;-2.22;63.16
72798;BME280;61084;55.816;37.036;2023-02-15T05:30:38;99994.13;;;-2.28;63.37
72798;BME280;61084;55.816;37.036;2023-02-15T05:33:06;100000.97;;;-2.28;63.37
72798;BME280;61084;55.816;37.036;2023-02-15T05:35:32;99996.66;;;-2.34;62.62
72798;BME280;61084;55.816;37.036;2023-02-15T05:37:58;99994.97;;;-2.33;62.88
72798;BME280;61084;55.816;37.036;2023-02-15T05:40:24;100006.97;;;-2.29;63.42
72798;BME280;61084;55.816;37.036;2023-02-15T05:42:50;100007.84;;;-2.27;63.07
72798;BME280;61084;55.816;37.036;2023-02-15T05:45:15;100021.56;;;-2.26;62.96
72798;BME280;61084;55.816;37.036;2023-02-15T05:47:42;100014.69;;;-2.28;63.51
72798;BME280;61084;55.816;37.036;2023-02-15T05:50:08;100018.97;;;-2.28;63.26
72798;BME280;61084;55.816;37.036;2023-02-15T05:52:35;100015.56;;;-2.28;63.06
72798;BME280;61084;55.816;37.036;2023-02-15T05:55:00;100018.16;;;-2.22;62.81
72798;BME280;61084;55.816;37.036;2023-02-15T05:57:29;100019.91;;;-2.17;63.49
72798;BME280;61084;55.816;37.036;2023-02-15T05:59:55;100010.56;;;-2.09;63.15
72798;BME280;61084;55.816;37.036;2023-02-15T06:02:21;100018.28;;;-2.07;63.30
72798;BME280;61084;55.816;37.036;2023-02-15T06:04:47;100006.31;;;-2.07;63.41
72798;BME280;61084;55.816;37.036;2023-02-15T06:07:12;100012.28;;;-2.09;62.70
72798;BME280;61084;55.816;37.036;2023-02-15T06:09:38;100006.25;;;-2.08;63.51
72798;BME280;61084;55.816;37.036;2023-02-15T06:12:04;100013.09;;;-2.12;63.65
72798;BME280;61084;55.816;37.036;2023-02-15T06:14:30;100011.34;;;-2.17;62.61
72798;BME280;61084;55.816;37.036;2023-02-15T06:16:56;100009.66;;;-2.12;63.37
72798;BME280;61084;55.816;37.036;2023-02-15T06:19:21;100008.81;;;-2.13;63.15
72798;BME280;61084;55.816;37.036;2023-02-15T06:21:48;100020.81;;;-2.12;63.53
72798;BME280;61084;55.816;37.036;2023-02-15T06:24:15;100016.50;;;-2.13;63.44
72798;BME280;61084;55.816;37.036;2023-02-15T06:26:40;100015.63;;;-2.18;61.83
72798;BME280;61084;55.816;37.036;2023-02-15T06:29:06;100020.78;;;-2.18;63.43
72798;BME280;61084;55.816;37.036;2023-02-15T06:31:32;100015.63;;;-2.16;63.06
72798;BME280;61084;55.816;37.036;2023-02-15T06:33:58;100025.09;;;-2.15;62.33
72798;BME280;61084;55.816;37.036;2023-02-15T06:36:28;100030.28;;;-2.08;63.19
72798;BME280;61084;55.816;37.036;2023-02-15T06:38:54;100025.16;;;-2.05;61.94
72798;BME280;61084;55.816;37.036;2023-02-15T06:41:20;100025.16;;;-2.02;62.47
72798;BME280;61084;55.816;37.036;2023-02-15T06:43:46;100021.75;;;-2.02;62.41
72798;BME280;61084;55.816;37.036;2023-02-15T06:46:12;100031.25;;;-1.94;63.19
72798;BME280;61084;55.816;37.036;2023-02-15T06:48:38;100028.69;;;-1.94;62.86
72798;BME280;61084;55.816;37.036;2023-02-15T06:51:03;100031.22;;;-1.97;62.18
72798;BME280;61084;55.816;37.036;2023-02-15T06:53:29;100026.91;;;-1.98;62.49
72798;BME280;61084;55.816;37.036;2023-02-15T06:56:07;100033.75;;;-2.03;61.12
72798;BME280;61084;55.816;37.036;2023-02-15T06:58:35;100026.91;;;-1.98;61.89
72798;BME280;61084;55.816;37.036;2023-02-15T07:01:02;100030.34;;;-1.97;61.40
72798;BME280;61084;55.816;37.036;2023-02-15T07:03:29;100026.16;;;-1.89;62.71
72798;BME280;61084;55.816;37.036;2023-02-15T07:05:55;100033.00;;;-1.87;63.07
72798;BME280;61084;55.816;37.036;2023-02-15T07:08:22;100047.59;;;-1.86;62.43
72798;BME280;61084;55.816;37.036;2023-02-15T07:10:51;100053.56;;;-1.90;60.50
72798;BME280;61084;55.816;37.036;2023-02-15T07:13:18;100055.31;;;-1.86;62.35
72798;BME280;61084;55.816;37.036;2023-02-15T07:15:45;100055.28;;;-1.89;60.99
72798;BME280;61084;55.816;37.036;2023-02-15T07:18:11;100049.28;;;-1.89;62.04
72798;BME280;61084;55.816;37.036;2023-02-15T07:20:37;100056.19;;;-1.82;60.78
72798;BME280;61084;55.816;37.036;2023-02-15T07:23:04;100054.44;;;-1.85;60.96
72798;BME280;61084;55.816;37.036;2023-02-15T07:25:30;100045.91;;;-1.78;61.95
72798;BME280;61084;55.816;37.036;2023-02-15T07:28:01;100055.44;;;-1.68;62.15
72798;BME280;61084;55.816;37.036;2023-02-15T07:30:28;100044.28;;;-1.67;61.95
72798;BME280;61084;55.816;37.036;2023-02-15T07:32:57;100052.03;;;-1.64;62.45
72798;BME280;61084;55.816;37.036;2023-02-15T07:35:56;100045.22;;;-1.57;62.22
72798;BME280;61084;55.816;37.036;2023-02-15T07:38:39;100046.94;;;-1.53;62.42
72798;BME280;61084;55.816;37.036;2023-02-15T07:41:07;100053.81;;;-1.50;62.08
72798;BME280;61084;55.816;37.036;2023-02-15T07:43:36;100044.38;;;-1.55;61.88
72798;BME280;61084;55.816;37.036;2023-02-15T07:46:05;100045.22;;;-1.54;61.44
72798;BME280;61084;55.816;37.036;2023-02-15T07:48:33;100042.66;;;-1.49;60.93
72798;BME280;61084;55.816;37.036;2023-02-15T07:51:03;100050.41;;;-1.43;62.11
72798;BME280;61084;55.816;37.036;2023-02-15T07:53:30;100059.88;;;-1.36;61.15
72798;BME280;61084;55.816;37.036;2023-02-15T07:55:59;100059.06;;;-1.34;61.08
72798;BME280;61084;55.816;37.036;2023-02-15T07:58:26;100060.75;;;-1.36;60.23
72798;BME280;61084;55.816;37.036;2023-02-15T08:01:12;100047.06;;;-1.26;60.94
72798;BME280;61084;55.816;37.036;2023-02-15T08:03:38;100063.38;;;-1.24;62.25
72798;BME280;61084;55.816;37.036;2023-02-15T08:06:03;100064.28;;;-1.20;61.54
72798;BME280;61084;55.816;37.036;2023-02-15T08:08:29;100051.38;;;-1.25;60.80
72798;BME280;61084;55.816;37.036;2023-02-15T08:11:02;100053.97;;;-1.17;61.63
72798;BME280;61084;55.816;37.036;2023-02-15T08:13:49;100062.63;;;-1.09;61.38
72798;BME280;61084;55.816;37.036;2023-02-15T08:16:47;100066.88;;;-1.14;61.98
72798;BME280;61084;55.816;37.036;2023-02-15T08:19:32;100066.06;;;-1.07;61.55
72798;BME280;61084;55.816;37.036;2023-02-15T08:22:03;100073.78;;;-1.04;61.41
72798;BME280;61084;55.816;37.036;2023-02-15T08:24:32;100080.66;;;-1.05;60.95
72798;BME280;61084;55.816;37.036;2023-02-15T08:26:58;100080.69;;;-0.97;61.00
72798;BME280;61084;55.816;37.036;2023-02-15T08:29:29;100076.41;;;-0.94;61.99
72798;BME280;61084;55.816;37.036;2023-02-15T08:31:57;100078.97;;;-0.95;61.71
72798;BME280;61084;55.816;37.036;2023-02-15T08:34:31;100082.41;;;-0.95;60.64
72798;BME280;61084;55.816;37.036;2023-02-15T08:36:58;100083.25;;;-0.96;60.14
72798;BME280;61084;55.816;37.036;2023-02-15T08:39:23;100091.88;;;-0.91;60.95
72798;BME280;61084;55.816;37.036;2023-02-15T08:41:49;100086.66;;;-1.00;61.16
72798;BME280;61084;55.816;37.036;2023-02-15T08:44:17;100090.13;;;-0.98;60.76
72798;BME280;61084;55.816;37.036;2023-02-15T08:46:44;100087.56;;;-0.93;62.26
72798;BME280;61084;55.816;37.036;2023-02-15T08:49:14;100097.03;;;-0.89;61.08
72798;BME280;61084;55.816;37.036;2023-02-15T08:51:41;100094.50;;;-0.77;61.48
72798;BME280;61084;55.816;37.036;2023-02-15T08:54:09;100094.50;;;-0.83;62.33
72798;BME280;61084;55.816;37.036;2023-02-15T08:56:37;100085.03;;;-0.86;61.10
72798;BME280;61084;55.816;37.036;2023-02-15T08:59:04;100097.88;;;-0.96;60.85
72798;BME280;61084;55.816;37.036;2023-02-15T09:01:31;100103.88;;;-0.93;61.23
72798;BME280;61084;55.816;37.036;2023-02-15T09:04:00;100103.91;;;-0.88;60.88
72798;BME280;61084;55.816;37.036;2023-02-15T09:06:27;100109.91;;;-0.86;60.69
72798;BME280;61084;55.816;37.036;2023-02-15T09:08:54;100104.75;;;-0.91;60.97
72798;BME280;61084;55.816;37.036;2023-02-15T09:11:33;100096.13;;;-0.96;61.37
72798;BME280;61084;55.816;37.036;2023-02-15T09:14:05;100099.56;;;-1.00;60.23
72798;BME280;61084;55.816;37.036;2023-02-15T09:16:33;100103.00;;;-0.98;60.15
72798;BME280;61084;55.816;37.036;2023-02-15T09:19:00;100103.00;;;-0.98;61.77
72798;BME280;61084;55.816;37.036;2023-02-15T09:21:30;100111.59;;;-0.91;61.61
72798;BME280;61084;55.816;37.036;2023-02-15T09:24:08;100104.75;;;-0.91;61.70
72798;BME280;61084;55.816;37.036;2023-02-15T09:26:36;100107.38;;;-0.82;61.39
72798;BME280;61084;55.816;37.036;2023-02-15T09:29:03;100109.97;;;-0.79;61.88
72798;BME280;61084;55.816;37.036;2023-02-15T09:31:32;100115.97;;;-0.80;59.63
72798;BME280;61084;55.816;37.036;2023-02-15T09:33:59;100109.09;;;-0.76;61.26
72798;BME280;61084;55.816;37.036;2023-02-15T09:36:34;100109.97;;;-0.72;61.37
72798;BME280;61084;55.816;37.036;2023-02-15T09:50:33;100116.03;;;-0.61;60.48
72798;BME280;61084;55.816;37.036;2023-02-15T09:56:15;100106.66;;;-0.40;60.56
72798;BME280;61084;55.816;37.036;2023-02-15T09:59:00;100114.41;;;-0.31;60.18
72798;BME280;61084;55.816;37.036;2023-02-15T10:26:32;100135.88;;;-0.38;60.01
72798;BME280;61084;55.816;37.036;2023-02-15T10:31:54;100136.72;;;-0.39;60.93
72798;BME280;61084;55.816;37.036;2023-02-15T10:34:45;100145.28;;;-0.41;61.29
72798;BME280;61084;55.816;37.036;2023-02-15T10:51:02;100159.06;;;-0.42;60.40
72798;BME280;61084;55.816;37.036;2023-02-15T10:53:38;100169.41;;;-0.39;60.98
72798;BME280;61084;55.816;37.036;2023-02-15T11:06:21;100173.78;;;-0.05;61.17
72798;BME280;61084;55.816;37.036;2023-02-15T11:09:00;100174.63;;;-0.02;61.24
72798;BME280;61084;55.816;37.036;2023-02-15T11:11:33;100168.63;;;0.01;61.49
72798;BME280;61084;55.816;37.036;2023-02-15T11:14:17;100178.06;;;-0.06;60.43
72798;BME280;61084;55.816;37.036;2023-02-15T11:16:49;100174.63;;;-0.08;60.31
72798;BME280;61084;55.816;37.036;2023-02-15T11:19:26;100179.78;;;-0.09;61.08
72798;BME280;61084;55.816;37.036;2023-02-15T11:21:58;100175.50;;;-0.03;61.00
72798;BME280;61084;55.816;37.036;2023-02-15T11:24:27;100183.25;;;-0.03;59.85
72798;BME280;61084;55.816;37.036;2023-02-15T11:27:04;100180.66;;;-0.06;60.10
72798;BME280;61084;55.816;37.036;2023-02-15T11:29:38;100183.22;;;-0.06;61.06
72798;BME280;61084;55.816;37.036;2023-02-15T11:35:04;100188.41;;;-0.03;60.84
72798;BME280;61084;55.816;37.036;2023-02-15T11:37:49;100197.88;;;-0.05;60.71
72798;BME280;61084;55.816;37.036;2023-02-15T11:40:47;100184.09;;;-0.07;59.98
72798;BME280;61084;55.816;37.036;2023-02-15T11:43:26;100197.81;;;-0.11;61.54
72798;BME280;61084;55.816;37.036;2023-02-15T11:45:55;100202.09;;;-0.19;61.13
72798;BME280;61084;55.816;37.036;2023-02-15T11:48:21;100206.44;;;-0.18;60.90
72798;BME280;61084;55.816;37.036;2023-02-15T11:50:47;100202.09;;;-0.22;61.10
72798;BME280;61084;55.816;37.036;2023-02-15T11:53:18;100212.41;;;-0.23;60.66
72798;BME280;61084;55.816;37.036;2023-02-15T11:55:48;100208.97;;;-0.19;60.96
72798;BME280;61084;55.816;37.036;2023-02-15T11:58:36;100214.13;;;-0.19;60.94
72798;BME280;61084;55.816;37.036;2023-02-15T12:04:24;100211.56;;;-0.19;60.91
72798;BME280;61084;55.816;37.036;2023-02-15T12:06:58;100221.06;;;-0.14;60.88
72798;BME280;61084;55.816;37.036;2023-02-15T12:12:23;100217.66;;;-0.01;61.03
72798;BME280;61084;55.816;37.036;2023-02-15T12:14:57;100215.91;;;-0.06;61.18
72798;BME280;61084;55.816;37.036;2023-02-15T12:17:25;100225.31;;;-0.23;60.09
72798;BME280;61084;55.816;37.036;2023-02-15T12:19:55;100223.59;;;-0.29;60.81
72798;BME280;61084;55.816;37.036;2023-02-15T12:22:24;100226.13;;;-0.33;59.86
72798;BME280;61084;55.816;37.036;2023-02-15T12:24:54;100232.97;;;-0.37;60.18
72798;BME280;61084;55.816;37.036;2023-02-15T12:27:27;100237.25;;;-0.46;59.98
72798;BME280;61084;55.816;37.036;2023-02-15T12:29:56;100236.41;;;-0.44;60.35
72798;BME280;61084;55.816;37.036;2023-02-15T12:32:26;100237.25;;;-0.43;60.38
72798;BME280;61084;55.816;37.036;2023-02-15T12:35:02;100239.81;;;-0.48;60.19
72798;BME280;61084;55.816;37.036;2023-02-15T12:37:33;100238.97;;;-0.45;60.11
72798;BME280;61084;55.816;37.036;2023-02-15T12:40:04;100252.75;;;-0.42;60.90
72798;BME280;61084;55.816;37.036;2023-02-15T12:42:44;100251.06;;;-0.34;60.60
72798;BME280;61084;55.816;37.036;2023-02-15T12:45:33;100249.31;;;-0.35;61.09
72798;BME280;61084;55.816;37.036;2023-02-15T12:48:28;100257.06;;;-0.38;60.73
72798;BME280;61084;55.816;37.036;2023-02-15T12:51:07;100257.94;;;-0.36;59.97
72798;BME280;61084;55.816;37.036;2023-02-15T12:53:35;100258.75;;;-0.44;60.67
72798;BME280;61084;55.816;37.036;2023-02-15T12:56:08;100265.59;;;-0.51;59.95
72798;BME280;61084;55.816;37.036;2023-02-15T12:58:36;100261.28;;;-0.55;61.06
72798;BME280;61084;55.816;37.036;2023-02-15T13:03:35;100273.25;;;-0.64;60.87
72798;BME280;61084;55.816;37.036;2023-02-15T13:06:03;100274.09;;;-0.68;61.40
72798;BME280;61084;55.816;37.036;2023-02-15T13:08:44;100282.63;;;-0.76;61.62
72798;BME280;61084;55.816;37.036;2023-02-15T13:11:12;100280.06;;;-0.74;61.79
72798;BME280;61084;55.816;37.036;2023-02-15T13:14:00;100280.03;;;-0.77;62.10
72798;BME280;61084;55.816;37.036;2023-02-15T13:16:37;100284.31;;;-0.76;61.91
72798;BME280;61084;55.816;37.036;2023-02-15T13:19:10;100286.91;;;-0.76;61.73
72798;BME280;61084;55.816;37.036;2023-02-15T13:21:40;100287.81;;;-0.74;61.86
72798;BME280;61084;55.816;37.036;2023-02-15T13:24:22;100283.50;;;-0.75;61.00
72798;BME280;61084;55.816;37.036;2023-02-15T13:26:50;100291.16;;;-0.84;60.87
72798;BME280;61084;55.816;37.036;2023-02-15T13:29:30;100293.72;;;-0.83;61.35
72798;BME280;61084;55.816;37.036;2023-02-15T13:31:58;100299.72;;;-0.87;61.13
72798;BME280;61084;55.816;37.036;2023-02-15T13:34:35;100303.13;;;-0.89;61.63
72798;BME280;61084;55.816;37.036;2023-02-15T13:37:50;100308.34;;;-0.83;61.72
72798;BME280;61084;55.816;37.036;2023-02-15T13:41:02;100298.94;;;-0.77;61.87
72798;BME280;61084;55.816;37.036;2023-02-15T13:43:41;100301.50;;;-0.78;62.07
72798;BME280;61084;55.816;37.036;2023-02-15T13:46:28;100305.78;;;-0.83;61.94
72798;BME280;61084;55.816;37.036;2023-02-15T13:49:34;100306.63;;;-0.83;62.04
72798;BME280;61084;55.816;37.036;2023-02-15T13:52:19;100306.56;;;-0.90;62.04
72798;BME280;61084;55.816;37.036;2023-02-15T14:00:30;100320.25;;;-0.99;62.36
72798;BME280;61084;55.816;37.036;2023-02-15T14:17:23;100336.22;;;-1.36;62.45
72798;BME280;61084;55.816;37.036;2023-02-15T14:19:59;100340.53;;;-1.33;62.65
72798;BME280;61084;55.816;37.036;2023-02-15T14:22:44;100337.94;;;-1.36;62.68
72798;BME280;61084;55.816;37.036;2023-02-15T14:25:25;100349.09;;;-1.34;62.25
72798;BME280;61084;55.816;37.036;2023-02-15T14:30:38;100353.47;;;-1.29;62.75
72798;BME280;61084;55.816;37.036;2023-02-15T14:35:56;100347.44;;;-1.28;62.08
72798;BME280;61084;55.816;37.036;2023-02-15T14:39:11;100357.78;;;-1.25;62.44
72798;BME280;61084;55.816;37.036;2023-02-15T14:46:41;100354.25;;;-1.34;62.12
72798;BME280;61084;55.816;37.036;2023-02-15T14:49:20;100350.81;;;-1.36;62.28
72798;BME280;61084;55.816;37.036;2023-02-15T14:59:46;100367.06;;;-1.42;62.16
72798;BME280;61084;55.816;37.036;2023-02-15T15:05:06;100363.63;;;-1.42;62.52
72798;BME280;61084;55.816;37.036;2023-02-15T15:07:36;100365.25;;;-1.50;62.31
72798;BME280;61084;55.816;37.036;2023-02-15T15:12:48;100363.44;;;-1.59;62.51
72798;BME280;61084;55.816;37.036;2023-02-15T15:20:41;100382.31;;;-1.59;62.89
72798;BME280;61084;55.816;37.036;2023-02-15T15:25:51;100388.41;;;-1.50;62.74
72798;BME280;61084;55.816;37.036;2023-02-15T15:45:17;100398.78;;;-1.46;62.82
72798;BME280;61084;55.816;37.036;2023-02-15T15:50:57;100401.34;;;-1.46;62.46
72798;BME280;61084;55.816;37.036;2023-02-15T15:53:26;100399.56;;;-1.52;62.59
72798;BME280;61084;55.816;37.036;2023-02-15T15:56:01;100407.22;;;-1.56;62.44
72798;BME280;61084;55.816;37.036;2023-02-15T15:58:29;100405.56;;;-1.52;62.44
72798;BME280;61084;55.816;37.036;2023-02-15T16:01:11;100404.69;;;-1.52;62.62
72798;BME280;61084;55.816;37.036;2023-02-15T16:03:54;100413.28;;;-1.49;62.52
72798;BME280;61084;55.816;37.036;2023-02-15T16:06:35;100419.38;;;-1.44;62.69
72798;BME280;61084;55.816;37.036;2023-02-15T16:09:18;100416.00;;;-1.39;62.79
72798;BME280;61084;55.816;37.036;2023-02-15T16:11:51;100430.56;;;-1.41;61.89
72798;BME280;61084;55.816;37.036;2023-02-15T16:16:59;100429.72;;;-1.41;62.31
72798;BME280;61084;55.816;37.036;2023-02-15T16:19:29;100427.16;;;-1.37;62.49